sensor_id;sensor_type;location;lat;lon;timestamp;pressure;altitude;pressure_sealevel;temperature;humidity
75136;BME280;63707;52.212;9.540;2023-05-10T00:00:50;99188.50;;;12.32;100.00
75136;BME280;63707;52.212;9.540;2023-05-10T00:03:16;99199.28;;;12.15;100.00
75136;BME280;63707;52.212;9.540;2023-05-10T00:05:41;99199.06;;;12.05;100.00
75136;BME280;63707;52.212;9.540;2023-05-10T00:08:07;99190.03;;;12.05;100.00
75136;BME280;63707;52.212;9.540;2023-05-10T00:10:34;99188.38;;;12.04;100.00
75136;BME280;63707;52.212;9.540;2023-05-10T00:12:59;99195.97;;;12.02;100.00
75136;BME280;63707;52.212;9.540;2023-05-10T00:15:25;99196.44;;;11.98;100.00
75136;BME280;63707;52.212;9.540;2023-05-10T00:17:50;99191.91;;;11.81;100.00
75136;BME280;63707;52.212;9.540;2023-05-10T00:20:16;99197.84;;;11.78;100.00
75136;BME280;63707;52.212;9.540;2023-05-10T00:22:41;99190.69;;;11.77;100.00
75136;BME280;63707;52.212;9.540;2023-05-10T00:25:08;99189.94;;;11.58;100.00
75136;BME280;63707;52.212;9.540;2023-05-10T00:27:36;99192.56;;;11.64;100.00
75136;BME280;63707;52.212;9.540;2023-05-10T00:30:01;99186.38;;;11.57;100.00
75136;BME280;63707;52.212;9.540;2023-05-10T00:32:27;99179.63;;;11.60;100.00
75136;BME280;63707;52.212;9.540;2023-05-10T00:34:52;99177.38;;;11.68;100.00
75136;BME280;63707;52.212;9.540;2023-05-10T00:37:18;99169.66;;;11.65;100.00
75136;BME280;63707;52.212;9.540;2023-05-10T00:39:43;99168.00;;;11.64;100.00
75136;BME280;63707;52.212;9.540;2023-05-10T00:42:08;99173.94;;;11.73;100.00
75136;BME280;63707;52.212;9.540;2023-05-10T00:44:35;99167.81;;;11.78;100.00
75136;BME280;63707;52.212;9.540;2023-05-10T00:47:01;99171.09;;;11.68;100.00
75136;BME280;63707;52.212;9.540;2023-05-10T00:49:28;99175.69;;;11.56;100.00
75136;BME280;63707;52.212;9.540;2023-05-10T00:51:54;99176.06;;;11.59;100.00
75136;BME280;63707;52.212;9.540;2023-05-10T00:54:20;99167.63;;;11.61;100.00
75136;BME280;63707;52.212;9.540;2023-05-10T00:56:45;99167.63;;;11.61;100.00
75136;BME280;63707;52.212;9.540;2023-05-10T00:59:14;99159.47;;;11.61;100.00
75136;BME280;63707;52.212;9.540;2023-05-10T01:01:41;99157.19;;;11.58;100.00
75136;BME280;63707;52.212;9.540;2023-05-10T01:04:06;99162.91;;;11.56;100.00
75136;BME280;63707;52.212;9.540;2023-05-10T01:06:32;99165.50;;;11.63;100.00
75136;BME280;63707;52.212;9.540;2023-05-10T01:08:58;99161.34;;;11.60;100.00
75136;BME280;63707;52.212;9.540;2023-05-10T01:11:24;99152.94;;;11.62;100.00
75136;BME280;63707;52.212;9.540;2023-05-10T01:13:54;99164.22;;;11.65;100.00
75136;BME280;63707;52.212;9.540;2023-05-10T01:16:20;99158.38;;;11.62;100.00
75136;BME280;63707;52.212;9.540;2023-05-10T01:18:48;99153.53;;;11.64;100.00
75136;BME280;63707;52.212;9.540;2023-05-10T01:21:19;99154.84;;;11.61;100.00
75136;BME280;63707;52.212;9.540;2023-05-10T01:24:09;99155.66;;;11.62;100.00
75136;BME280;63707;52.212;9.540;2023-05-10T01:26:58;99160.06;;;11.63;100.00
75136;BME280;63707;52.212;9.540;2023-05-10T01:29:42;99159.34;;;11.56;100.00
75136;BME280;63707;52.212;9.540;2023-05-10T01:32:21;99158.16;;;11.52;100.00
75136;BME280;63707;52.212;9.540;2023-05-10T01:34:55;99169.88;;;11.52;100.00
75136;BME280;63707;52.212;9.540;2023-05-10T01:37:29;99164.19;;;11.54;100.00
75136;BME280;63707;52.212;9.540;2023-05-10T01:40:00;99165.25;;;11.53;100.00
75136;BME280;63707;52.212;9.540;2023-05-10T01:42:32;99163.50;;;11.58;100.00
75136;BME280;63707;52.212;9.540;2023-05-10T01:45:07;99161.00;;;11.57;100.00
75136;BME280;63707;52.212;9.540;2023-05-10T01:47:40;99163.72;;;11.45;100.00
75136;BME280;63707;52.212;9.540;2023-05-10T01:50:10;99158.25;;;11.45;100.00
75136;BME280;63707;52.212;9.540;2023-05-10T01:52:42;99159.31;;;11.44;100.00
75136;BME280;63707;52.212;9.540;2023-05-10T01:55:11;99153.63;;;11.46;100.00
75136;BME280;63707;52.212;9.540;2023-05-10T01:57:40;99152.78;;;11.45;100.00
75136;BME280;63707;52.212;9.540;2023-05-10T02:00:09;99151.00;;;11.39;100.00
75136;BME280;63707;52.212;9.540;2023-05-10T02:02:38;99153.88;;;11.44;100.00
75136;BME280;63707;52.212;9.540;2023-05-10T02:05:06;99149.94;;;11.40;100.00
75136;BME280;63707;52.212;9.540;2023-05-10T02:07:33;99145.09;;;11.42;100.00
75136;BME280;63707;52.212;9.540;2023-05-10T02:10:02;99150.31;;;11.44;100.00
75136;BME280;63707;52.212;9.540;2023-05-10T02:12:28;99151.13;;;11.44;100.00
75136;BME280;63707;52.212;9.540;2023-05-10T02:14:56;99149.72;;;11.42;100.00
75136;BME280;63707;52.212;9.540;2023-05-10T02:17:23;99146.63;;;11.38;100.00
75136;BME280;63707;52.212;9.540;2023-05-10T02:19:52;99151.13;;;11.44;100.00
75136;BME280;63707;52.212;9.540;2023-05-10T02:22:19;99149.00;;;11.46;100.00
75136;BME280;63707;52.212;9.540;2023-05-10T02:24:46;99150.66;;;11.47;100.00
75136;BME280;63707;52.212;9.540;2023-05-10T02:27:14;99153.72;;;11.39;100.00
75136;BME280;63707;52.212;9.540;2023-05-10T02:29:41;99147.44;;;11.39;100.00
75136;BME280;63707;52.212;9.540;2023-05-10T02:32:07;99148.13;;;11.34;100.00
75136;BME280;63707;52.212;9.540;2023-05-10T02:34:35;99147.06;;;11.35;100.00
75136;BME280;63707;52.212;9.540;2023-05-10T02:37:02;99141.00;;;11.33;100.00
75136;BME280;63707;52.212;9.540;2023-05-10T02:39:29;99154.38;;;11.23;100.00
75136;BME280;63707;52.212;9.540;2023-05-10T02:41:57;99145.38;;;11.22;100.00
75136;BME280;63707;52.212;9.540;2023-05-10T02:44:23;99145.38;;;11.22;100.00
75136;BME280;63707;52.212;9.540;2023-05-10T02:46:51;99145.13;;;11.24;100.00
75136;BME280;63707;52.212;9.540;2023-05-10T02:49:17;99139.09;;;11.22;100.00
75136;BME280;63707;52.212;9.540;2023-05-10T02:51:47;99145.13;;;11.24;100.00
75136;BME280;63707;52.212;9.540;2023-05-10T02:54:19;99142.19;;;11.25;100.00
75136;BME280;63707;52.212;9.540;2023-05-10T02:56:50;99142.41;;;11.24;100.00
75136;BME280;63707;52.212;9.540;2023-05-10T02:59:16;99145.84;;;11.19;100.00
75136;BME280;63707;52.212;9.540;2023-05-10T03:01:42;99142.41;;;11.24;100.00
75136;BME280;63707;52.212;9.540;2023-05-10T03:04:07;99148.56;;;11.19;100.00
75136;BME280;63707;52.212;9.540;2023-05-10T03:06:33;99142.53;;;11.29;100.00
75136;BME280;63707;52.212;9.540;2023-05-10T03:08:58;99133.88;;;11.20;100.00
75136;BME280;63707;52.212;9.540;2023-05-10T03:11:37;99140.28;;;11.26;100.00
75136;BME280;63707;52.212;9.540;2023-05-10T03:14:21;99134.78;;;11.44;100.00
75136;BME280;63707;52.212;9.540;2023-05-10T03:16:56;99134.13;;;11.30;100.00
75136;BME280;63707;52.212;9.540;2023-05-10T03:19:29;99128.59;;;11.37;100.00
75136;BME280;63707;52.212;9.540;2023-05-10T03:21:59;99139.41;;;11.44;100.00
75136;BME280;63707;52.212;9.540;2023-05-10T03:24:27;99137.22;;;11.34;100.00
75136;BME280;63707;52.212;9.540;2023-05-10T03:26:56;99142.13;;;11.44;100.00
75136;BME280;63707;52.212;9.540;2023-05-10T03:29:25;99143.88;;;11.38;100.00
75136;BME280;63707;52.212;9.540;2023-05-10T03:31:51;99144.47;;;11.40;100.00
75136;BME280;63707;52.212;9.540;2023-05-10T03:34:16;99144.00;;;11.43;100.00
75136;BME280;63707;52.212;9.540;2023-05-10T03:36:48;99145.44;;;11.46;100.00
75136;BME280;63707;52.212;9.540;2023-05-10T03:39:13;99149.97;;;11.52;100.00
75136;BME280;63707;52.212;9.540;2023-05-10T03:41:39;99144.13;;;11.48;100.00
75136;BME280;63707;52.212;9.540;2023-05-10T03:44:05;99146.63;;;11.38;100.00
75136;BME280;63707;52.212;9.540;2023-05-10T03:46:31;99155.88;;;11.37;100.00
75136;BME280;63707;52.212;9.540;2023-05-10T03:48:56;99155.41;;;11.52;100.00
75136;BME280;63707;52.212;9.540;2023-05-10T03:51:22;99153.38;;;11.47;100.00
75136;BME280;63707;52.212;9.540;2023-05-10T03:53:47;99160.03;;;11.51;100.00
75136;BME280;63707;52.212;9.540;2023-05-10T03:56:13;99147.22;;;11.52;100.00
75136;BME280;63707;52.212;9.540;2023-05-10T03:58:38;99143.28;;;11.36;100.00
75136;BME280;63707;52.212;9.540;2023-05-10T04:01:05;99142.72;;;11.46;100.00
75136;BME280;63707;52.212;9.540;2023-05-10T04:03:31;99148.06;;;11.52;100.00
75136;BME280;63707;52.212;9.540;2023-05-10T04:06:00;99143.56;;;11.58;100.00
75136;BME280;63707;52.212;9.540;2023-05-10T04:08:26;99150.31;;;11.55;100.00
75136;BME280;63707;52.212;9.540;2023-05-10T04:10:51;99143.56;;;11.70;100.00
75136;BME280;63707;52.212;9.540;2023-05-10T04:13:17;99138.09;;;11.70;100.00
75136;BME280;63707;52.212;9.540;2023-05-10T04:15:42;99137.97;;;11.53;100.00
75136;BME280;63707;52.212;9.540;2023-05-10T04:18:10;99142.19;;;11.25;100.00
75136;BME280;63707;52.212;9.540;2023-05-10T04:20:35;99146.50;;;11.03;100.00
75136;BME280;63707;52.212;9.540;2023-05-10T04:23:01;99144.81;;;10.90;100.00
75136;BME280;63707;52.212;9.540;2023-05-10T04:25:26;99148.34;;;10.91;100.00
75136;BME280;63707;52.212;9.540;2023-05-10T04:27:52;99151.00;;;10.79;100.00
75136;BME280;63707;52.212;9.540;2023-05-10T04:30:17;99154.97;;;10.65;100.00
75136;BME280;63707;52.212;9.540;2023-05-10T04:32:43;99158.53;;;10.65;100.00
75136;BME280;63707;52.212;9.540;2023-05-10T04:35:10;99168.72;;;10.70;100.00
75136;BME280;63707;52.212;9.540;2023-05-10T04:37:35;99167.84;;;10.58;100.00
75136;BME280;63707;52.212;9.540;2023-05-10T04:40:01;99176.75;;;10.65;100.00
75136;BME280;63707;52.212;9.540;2023-05-10T04:42:28;99175.47;;;10.67;100.00
75136;BME280;63707;52.212;9.540;2023-05-10T04:44:54;99178.50;;;10.59;100.00
75136;BME280;63707;52.212;9.540;2023-05-10T04:47:20;99174.19;;;10.52;100.00
75136;BME280;63707;52.212;9.540;2023-05-10T04:49:45;99178.13;;;10.56;100.00
75136;BME280;63707;52.212;9.540;2023-05-10T04:52:12;99186.22;;;10.62;100.00
75136;BME280;63707;52.212;9.540;2023-05-10T04:54:37;99192.28;;;10.64;100.00
75136;BME280;63707;52.212;9.540;2023-05-10T04:57:03;99189.25;;;10.54;100.00
75136;BME280;63707;52.212;9.540;2023-05-10T04:59:28;99199.38;;;10.65;100.00
75136;BME280;63707;52.212;9.540;2023-05-10T05:01:54;99197.88;;;10.51;100.00
75136;BME280;63707;52.212;9.540;2023-05-10T05:04:19;99202.88;;;10.54;100.00
75136;BME280;63707;52.212;9.540;2023-05-10T05:06:45;99205.91;;;10.46;100.00
75136;BME280;63707;52.212;9.540;2023-05-10T05:09:12;99199.91;;;10.37;100.00
75136;BME280;63707;52.212;9.540;2023-05-10T05:11:37;99210.25;;;10.29;100.00
75136;BME280;63707;52.212;9.540;2023-05-10T05:14:03;99201.56;;;10.20;100.00
75136;BME280;63707;52.212;9.540;2023-05-10T05:16:30;99209.50;;;10.22;100.00
75136;BME280;63707;52.212;9.540;2023-05-10T05:18:56;99208.66;;;10.21;100.00
75136;BME280;63707;52.212;9.540;2023-05-10T05:21:22;99206.78;;;10.22;100.00
75136;BME280;63707;52.212;9.540;2023-05-10T05:23:47;99218.50;;;10.22;100.00
75136;BME280;63707;52.212;9.540;2023-05-10T05:26:14;99218.19;;;10.30;100.00
75136;BME280;63707;52.212;9.540;2023-05-10T05:28:40;99214.25;;;10.26;100.00
75136;BME280;63707;52.212;9.540;2023-05-10T05:31:06;99219.25;;;10.29;100.00
75136;BME280;63707;52.212;9.540;2023-05-10T05:33:34;99216.16;;;10.26;100.00
75136;BME280;63707;52.212;9.540;2023-05-10T05:36:00;99217.97;;;10.32;100.00
75136;BME280;63707;52.212;9.540;2023-05-10T05:38:26;99214.78;;;10.35;100.00
75136;BME280;63707;52.212;9.540;2023-05-10T05:40:51;99221.47;;;10.39;100.00
75136;BME280;63707;52.212;9.540;2023-05-10T05:43:18;99222.78;;;10.55;100.00
75136;BME280;63707;52.212;9.540;2023-05-10T05:45:43;99224.59;;;10.61;100.00
75136;BME280;63707;52.212;9.540;2023-05-10T05:48:09;99225.34;;;10.68;100.00
75136;BME280;63707;52.212;9.540;2023-05-10T05:50:34;99225.88;;;10.77;100.00
75136;BME280;63707;52.212;9.540;2023-05-10T05:53:00;99228.69;;;10.88;100.00
75136;BME280;63707;52.212;9.540;2023-05-10T05:55:26;99237.59;;;10.95;100.00
75136;BME280;63707;52.212;9.540;2023-05-10T05:57:51;99232.16;;;10.95;100.00
75136;BME280;63707;52.212;9.540;2023-05-10T06:00:18;99234.66;;;10.97;100.00
75136;BME280;63707;52.212;9.540;2023-05-10T06:02:44;99242.28;;;11.07;100.00
75136;BME280;63707;52.212;9.540;2023-05-10T06:05:09;99242.69;;;11.22;100.00
75136;BME280;63707;52.212;9.540;2023-05-10T06:07:35;99250.94;;;11.33;100.00
75136;BME280;63707;52.212;9.540;2023-05-10T06:10:01;99244.88;;;11.31;100.00
75136;BME280;63707;52.212;9.540;2023-05-10T06:12:26;99249.72;;;11.29;100.00
75136;BME280;63707;52.212;9.540;2023-05-10T06:14:52;99251.22;;;11.44;100.00
75136;BME280;63707;52.212;9.540;2023-05-10T06:17:18;99247.09;;;11.53;100.00
75136;BME280;63707;52.212;9.540;2023-05-10T06:19:44;99255.38;;;11.46;100.00
75136;BME280;63707;52.212;9.540;2023-05-10T06:22:10;99247.47;;;11.56;100.00
75136;BME280;63707;52.212;9.540;2023-05-10T06:24:35;99245.06;;;11.78;100.00
75136;BME280;63707;52.212;9.540;2023-05-10T06:27:01;99252.03;;;11.74;100.00
75136;BME280;63707;52.212;9.540;2023-05-10T06:29:27;99250.94;;;11.63;100.00
75136;BME280;63707;52.212;9.540;2023-05-10T06:31:52;99257.00;;;11.77;100.00
75136;BME280;63707;52.212;9.540;2023-05-10T06:34:20;99252.50;;;11.71;100.00
75136;BME280;63707;52.212;9.540;2023-05-10T06:36:46;99256.34;;;11.82;100.00
75136;BME280;63707;52.212;9.540;2023-05-10T06:39:11;99259.47;;;11.85;100.00
75136;BME280;63707;52.212;9.540;2023-05-10T06:41:37;99272.03;;;11.86;100.00
75136;BME280;63707;52.212;9.540;2023-05-10T06:44:03;99266.66;;;11.80;100.00
75136;BME280;63707;52.212;9.540;2023-05-10T06:46:29;99274.88;;;11.61;100.00
75136;BME280;63707;52.212;9.540;2023-05-10T06:48:54;99279.38;;;11.56;100.00
75136;BME280;63707;52.212;9.540;2023-05-10T06:51:21;99288.59;;;11.43;100.00
75136;BME280;63707;52.212;9.540;2023-05-10T06:53:47;99289.94;;;11.52;100.00
75136;BME280;63707;52.212;9.540;2023-05-10T06:56:12;99293.91;;;11.38;100.00
75136;BME280;63707;52.212;9.540;2023-05-10T06:58:38;99294.97;;;11.37;100.00
75136;BME280;63707;52.212;9.540;2023-05-10T07:01:04;99303.56;;;11.34;100.00
75136;BME280;63707;52.212;9.540;2023-05-10T07:03:30;99305.25;;;11.35;100.00
75136;BME280;63707;52.212;9.540;2023-05-10T07:06:00;99306.75;;;11.49;100.00
75136;BME280;63707;52.212;9.540;2023-05-10T07:08:28;99315.34;;;11.64;100.00
75136;BME280;63707;52.212;9.540;2023-05-10T07:10:59;99312.13;;;11.56;100.00
75136;BME280;63707;52.212;9.540;2023-05-10T07:13:25;99317.84;;;11.66;100.00
75136;BME280;63707;52.212;9.540;2023-05-10T07:15:51;99313.22;;;11.66;100.00
75136;BME280;63707;52.212;9.540;2023-05-10T07:18:16;99313.81;;;11.68;100.00
75136;BME280;63707;52.212;9.540;2023-05-10T07:20:42;99319.94;;;11.82;100.00
75136;BME280;63707;52.212;9.540;2023-05-10T07:23:07;99318.56;;;11.91;100.00
75136;BME280;63707;52.212;9.540;2023-05-10T07:25:34;99313.25;;;12.08;100.00
75136;BME280;63707;52.212;9.540;2023-05-10T07:27:59;99329.06;;;12.18;100.00
75136;BME280;63707;52.212;9.540;2023-05-10T07:30:25;99327.81;;;12.32;100.00
75136;BME280;63707;52.212;9.540;2023-05-10T07:32:50;99325.31;;;12.42;100.00
75136;BME280;63707;52.212;9.540;2023-05-10T07:35:16;99328.78;;;12.38;100.00
75136;BME280;63707;52.212;9.540;2023-05-10T07:37:42;99335.31;;;12.48;100.00
75136;BME280;63707;52.212;9.540;2023-05-10T07:40:08;99329.97;;;12.42;100.00
75136;BME280;63707;52.212;9.540;2023-05-10T07:42:35;99340.66;;;12.43;100.00
75136;BME280;63707;52.212;9.540;2023-05-10T07:45:01;99350.03;;;12.36;100.00
75136;BME280;63707;52.212;9.540;2023-05-10T07:47:27;99343.03;;;12.51;100.00
75136;BME280;63707;52.212;9.540;2023-05-10T07:49:52;99346.13;;;12.55;100.00
75136;BME280;63707;52.212;9.540;2023-05-10T07:52:18;99348.63;;;12.68;100.00
75136;BME280;63707;52.212;9.540;2023-05-10T07:54:44;99345.41;;;12.71;100.00
75136;BME280;63707;52.212;9.540;2023-05-10T07:57:09;99357.19;;;12.72;100.00
75136;BME280;63707;52.212;9.540;2023-05-10T07:59:36;99348.50;;;12.63;100.00
75136;BME280;63707;52.212;9.540;2023-05-10T08:02:02;99354.19;;;12.73;100.00
75136;BME280;63707;52.212;9.540;2023-05-10T08:04:27;99361.94;;;12.76;100.00
75136;BME280;63707;52.212;9.540;2023-05-10T08:06:53;99361.44;;;12.68;100.00
75136;BME280;63707;52.212;9.540;2023-05-10T08:09:18;99365.25;;;12.67;100.00
75136;BME280;63707;52.212;9.540;2023-05-10T08:11:48;99372.75;;;12.59;100.00
75136;BME280;63707;52.212;9.540;2023-05-10T08:14:14;99375.72;;;12.58;100.00
75136;BME280;63707;52.212;9.540;2023-05-10T08:16:41;99380.22;;;12.52;100.00
75136;BME280;63707;52.212;9.540;2023-05-10T08:19:06;99374.03;;;12.57;100.00
75136;BME280;63707;52.212;9.540;2023-05-10T08:21:32;99385.22;;;12.67;100.00
75136;BME280;63707;52.212;9.540;2023-05-10T08:23:57;99384.03;;;12.75;100.00
75136;BME280;63707;52.212;9.540;2023-05-10T08:26:23;99384.88;;;12.64;100.00
75136;BME280;63707;52.212;9.540;2023-05-10T08:28:48;99376.31;;;12.72;100.00
75136;BME280;63707;52.212;9.540;2023-05-10T08:31:14;99384.16;;;12.56;100.00
75136;BME280;63707;52.212;9.540;2023-05-10T08:33:41;99382.75;;;12.77;100.00
75136;BME280;63707;52.212;9.540;2023-05-10T08:36:06;99393.06;;;12.64;100.00
75136;BME280;63707;52.212;9.540;2023-05-10T08:38:32;99395.44;;;12.60;100.00
75136;BME280;63707;52.212;9.540;2023-05-10T08:40:58;99391.31;;;12.81;100.00
75136;BME280;63707;52.212;9.540;2023-05-10T08:43:27;99400.22;;;12.88;100.00
75136;BME280;63707;52.212;9.540;2023-05-10T08:45:55;99400.69;;;12.97;100.00
75136;BME280;63707;52.212;9.540;2023-05-10T08:48:24;99400.34;;;13.05;100.00
75136;BME280;63707;52.212;9.540;2023-05-10T08:50:53;99401.44;;;13.27;100.00
75136;BME280;63707;52.212;9.540;2023-05-10T08:53:24;99402.50;;;13.38;100.00
75136;BME280;63707;52.212;9.540;2023-05-10T08:55:50;99412.00;;;13.23;100.00
75136;BME280;63707;52.212;9.540;2023-05-10T08:58:16;99405.44;;;13.48;100.00
75136;BME280;63707;52.212;9.540;2023-05-10T09:00:41;99409.13;;;13.53;100.00
75136;BME280;63707;52.212;9.540;2023-05-10T09:03:08;99420.22;;;13.35;100.00
75136;BME280;63707;52.212;9.540;2023-05-10T09:05:36;99415.91;;;13.51;100.00
75136;BME280;63707;52.212;9.540;2023-05-10T09:08:04;99429.13;;;13.42;100.00
75136;BME280;63707;52.212;9.540;2023-05-10T09:10:29;99438.78;;;13.33;100.00
75136;BME280;63707;52.212;9.540;2023-05-10T09:12:56;99445.66;;;13.24;100.00
75136;BME280;63707;52.212;9.540;2023-05-10T09:15:22;99442.94;;;13.24;100.00
75136;BME280;63707;52.212;9.540;2023-05-10T09:17:49;99445.56;;;13.19;100.00
75136;BME280;63707;52.212;9.540;2023-05-10T09:20:15;99446.06;;;13.28;100.00
75136;BME280;63707;52.212;9.540;2023-05-10T09:22:42;99438.13;;;13.66;100.00
75136;BME280;63707;52.212;9.540;2023-05-10T09:25:11;99442.81;;;13.42;100.00
75136;BME280;63707;52.212;9.540;2023-05-10T09:27:37;99442.09;;;13.23;100.00
75136;BME280;63707;52.212;9.540;2023-05-10T09:30:05;99444.00;;;13.23;100.00
75136;BME280;63707;52.212;9.540;2023-05-10T09:32:38;99450.78;;;13.44;100.00
75136;BME280;63707;52.212;9.540;2023-05-10T09:35:08;99452.19;;;13.58;100.00
75136;BME280;63707;52.212;9.540;2023-05-10T09:37:34;99457.28;;;13.78;100.00
75136;BME280;63707;52.212;9.540;2023-05-10T09:40:00;99456.91;;;13.86;100.00
75136;BME280;63707;52.212;9.540;2023-05-10T09:42:26;99463.09;;;14.22;100.00
75136;BME280;63707;52.212;9.540;2023-05-10T09:44:52;99460.06;;;14.35;100.00
75136;BME280;63707;52.212;9.540;2023-05-10T09:47:18;99460.28;;;14.45;100.00
75136;BME280;63707;52.212;9.540;2023-05-10T09:49:49;99468.09;;;14.53;100.00
75136;BME280;63707;52.212;9.540;2023-05-10T09:52:15;99464.69;;;14.46;100.00
75136;BME280;63707;52.212;9.540;2023-05-10T09:54:45;99474.66;;;14.24;100.00
75136;BME280;63707;52.212;9.540;2023-05-10T09:57:20;99478.16;;;14.36;100.00
75136;BME280;63707;52.212;9.540;2023-05-10T09:59:47;99480.63;;;14.21;100.00
75136;BME280;63707;52.212;9.540;2023-05-10T10:02:13;99485.72;;;14.29;100.00
75136;BME280;63707;52.212;9.540;2023-05-10T10:04:39;99477.34;;;14.35;100.00
75136;BME280;63707;52.212;9.540;2023-05-10T10:07:05;99481.00;;;14.41;100.00
75136;BME280;63707;52.212;9.540;2023-05-10T10:09:31;99486.41;;;14.36;100.00
75136;BME280;63707;52.212;9.540;2023-05-10T10:11:57;99480.31;;;14.45;100.00
75136;BME280;63707;52.212;9.540;2023-05-10T10:14:24;99479.66;;;14.55;100.00
75136;BME280;63707;52.212;9.540;2023-05-10T10:16:51;99488.16;;;14.70;100.00
75136;BME280;63707;52.212;9.540;2023-05-10T10:19:17;99483.31;;;14.61;100.00
75136;BME280;63707;52.212;9.540;2023-05-10T10:21:43;99484.03;;;15.01;100.00
75136;BME280;63707;52.212;9.540;2023-05-10T10:24:08;99490.94;;;15.04;100.00
75136;BME280;63707;52.212;9.540;2023-05-10T10:26:35;99490.75;;;15.10;100.00
75136;BME280;63707;52.212;9.540;2023-05-10T10:29:10;99493.00;;;15.30;100.00
75136;BME280;63707;52.212;9.540;2023-05-10T10:31:44;99486.78;;;15.35;100.00
75136;BME280;63707;52.212;9.540;2023-05-10T10:34:22;99488.44;;;15.19;100.00
75136;BME280;63707;52.212;9.540;2023-05-10T10:36:50;99491.19;;;15.36;100.00
75136;BME280;63707;52.212;9.540;2023-05-10T10:39:15;99491.72;;;15.55;100.00
75136;BME280;63707;52.212;9.540;2023-05-10T10:41:50;99487.34;;;15.37;100.00
75136;BME280;63707;52.212;9.540;2023-05-10T10:44:32;99490.59;;;15.34;100.00
75136;BME280;63707;52.212;9.540;2023-05-10T10:47:07;99486.50;;;15.36;100.00
75136;BME280;63707;52.212;9.540;2023-05-10T10:49:42;99481.75;;;15.65;100.00
75136;BME280;63707;52.212;9.540;2023-05-10T10:52:20;99484.34;;;15.94;100.00
75136;BME280;63707;52.212;9.540;2023-05-10T10:54:50;99478.88;;;16.96;100.00
75136;BME280;63707;52.212;9.540;2023-05-10T10:57:18;99478.22;;;17.16;100.00
75136;BME280;63707;52.212;9.540;2023-05-10T10:59:44;99481.19;;;15.85;100.00
75136;BME280;63707;52.212;9.540;2023-05-10T11:02:33;99476.91;;;16.92;100.00
75136;BME280;63707;52.212;9.540;2023-05-10T11:05:24;99468.53;;;18.91;100.00
75136;BME280;63707;52.212;9.540;2023-05-10T11:07:51;99470.91;;;18.42;100.00
75136;BME280;63707;52.212;9.540;2023-05-10T11:10:19;99464.13;;;18.90;100.00
75136;BME280;63707;52.212;9.540;2023-05-10T11:12:52;99471.28;;;18.81;100.00
75136;BME280;63707;52.212;9.540;2023-05-10T11:15:19;99474.59;;;18.88;100.00
75136;BME280;63707;52.212;9.540;2023-05-10T11:17:45;99471.19;;;18.40;100.00
75136;BME280;63707;52.212;9.540;2023-05-10T11:20:15;99479.22;;;17.42;100.00
75136;BME280;63707;52.212;9.540;2023-05-10T11:22:50;99480.00;;;17.33;100.00
75136;BME280;63707;52.212;9.540;2023-05-10T11:25:16;99481.44;;;16.76;100.00
75136;BME280;63707;52.212;9.540;2023-05-10T11:27:42;99491.25;;;16.18;100.00
75136;BME280;63707;52.212;9.540;2023-05-10T11:30:09;99509.19;;;15.82;100.00
75136;BME280;63707;52.212;9.540;2023-05-10T11:32:37;99503.97;;;15.47;100.00
75136;BME280;63707;52.212;9.540;2023-05-10T11:35:07;99504.97;;;15.58;100.00
75136;BME280;63707;52.212;9.540;2023-05-10T11:37:33;99511.94;;;15.82;100.00
75136;BME280;63707;52.212;9.540;2023-05-10T11:39:59;99511.03;;;15.43;100.00
75136;BME280;63707;52.212;9.540;2023-05-10T11:42:25;99507.06;;;15.89;100.00
75136;BME280;63707;52.212;9.540;2023-05-10T11:44:50;99516.00;;;15.80;100.00
75136;BME280;63707;52.212;9.540;2023-05-10T11:47:16;99506.75;;;15.86;100.00
75136;BME280;63707;52.212;9.540;2023-05-10T11:49:43;99506.88;;;15.96;100.00
75136;BME280;63707;52.212;9.540;2023-05-10T11:52:09;99513.34;;;15.85;100.00
75136;BME280;63707;52.212;9.540;2023-05-10T11:54:37;99508.44;;;16.09;100.00
75136;BME280;63707;52.212;9.540;2023-05-10T11:57:09;99510.50;;;16.18;100.00
75136;BME280;63707;52.212;9.540;2023-05-10T11:59:36;99512.09;;;16.14;100.00
75136;BME280;63707;52.212;9.540;2023-05-10T12:02:01;99516.03;;;16.99;100.00
75136;BME280;63707;52.212;9.540;2023-05-10T12:04:28;99503.91;;;18.11;100.00
75136;BME280;63707;52.212;9.540;2023-05-10T12:06:54;99494.41;;;18.49;100.00
75136;BME280;63707;52.212;9.540;2023-05-10T12:09:20;99503.06;;;18.06;100.00
75136;BME280;63707;52.212;9.540;2023-05-10T12:11:47;99504.06;;;18.57;100.00
75136;BME280;63707;52.212;9.540;2023-05-10T12:14:12;99503.34;;;18.04;100.00
75136;BME280;63707;52.212;9.540;2023-05-10T12:16:38;99504.97;;;18.68;100.00
75136;BME280;63707;52.212;9.540;2023-05-10T12:19:04;99503.69;;;18.23;100.00
75136;BME280;63707;52.212;9.540;2023-05-10T12:21:30;99510.09;;;17.44;100.00
75136;BME280;63707;52.212;9.540;2023-05-10T12:23:59;99506.38;;;18.03;100.00
75136;BME280;63707;52.212;9.540;2023-05-10T12:26:27;99506.56;;;17.91;100.00
75136;BME280;63707;52.212;9.540;2023-05-10T12:28:55;99506.25;;;17.87;100.00
75136;BME280;63707;52.212;9.540;2023-05-10T12:31:20;99522.00;;;18.49;100.00
75136;BME280;63707;52.212;9.540;2023-05-10T12:33:46;99509.13;;;18.91;100.00
75136;BME280;63707;52.212;9.540;2023-05-10T12:36:15;99517.41;;;19.82;100.00
75136;BME280;63707;52.212;9.540;2023-05-10T12:38:42;99519.09;;;19.22;100.00
75136;BME280;63707;52.212;9.540;2023-05-10T12:41:16;99508.31;;;19.66;100.00
75136;BME280;63707;52.212;9.540;2023-05-10T12:43:41;99519.66;;;19.19;100.00
75136;BME280;63707;52.212;9.540;2023-05-10T12:46:10;99524.84;;;18.80;100.00
75136;BME280;63707;52.212;9.540;2023-05-10T12:48:38;99522.69;;;19.28;100.00
75136;BME280;63707;52.212;9.540;2023-05-10T12:51:04;99517.28;;;20.23;100.00